Abbott, Texas
Current Conditions -  °F | °C
As of 6:15 PM on Sunday 23 Nov 2014 (Local Time) from KINJ Reporting Station
Clear Clear  
Wind Chill: 66°   Ceiling: Unl
Heat Index: 66°   Visibility: 10mi
Dew Point: 40°   Wind: 16mph
Humidity: 39%   Direction: 300°WNW
Pressure: 29.58"   Gusts: NA
Location:  31.88°N, 97.07°W
Report Text: KINJ 240015Z AUTO 30014KT 10SM CLR 19/04 A2958 RMK AO2 T01870043
Loading
Personal Weather Stations






























Interactive Weather Map New forecast layout! Learn more

10-Day Weather Forecast

Advertisements
Track Severe Weather on mobile